createdAt,value
2019-03-29T00:00:22.299Z,44.73
2019-03-29T00:02:59.078Z,40.80
2019-03-29T00:05:34.752Z,52.13
2019-03-29T00:08:09.511Z,40.73
2019-03-29T00:10:44.311Z,40.67
2019-03-29T00:13:19.149Z,36.67
2019-03-29T00:15:53.669Z,31.60
2019-03-29T00:18:28.503Z,36.67
2019-03-29T00:21:03.303Z,40.90
2019-03-29T00:23:37.797Z,36.67
2019-03-29T00:26:12.305Z,43.77
2019-03-29T00:28:46.816Z,43.17
2019-03-29T00:31:21.322Z,41.57
2019-03-29T00:33:57.175Z,39.90
2019-03-29T00:36:33.683Z,37.27
2019-03-29T00:39:08.287Z,39.70
2019-03-29T00:41:43.084Z,42.10
2019-03-29T00:44:20.882Z,42.70
2019-03-29T00:46:55.658Z,27.87
2019-03-29T00:49:30.185Z,36.17
2019-03-29T00:52:05.927Z,38.57
2019-03-29T00:54:41.440Z,37.60
2019-03-29T00:57:15.985Z,40.93
2019-03-29T00:59:50.965Z,32.40
2019-03-29T01:02:25.653Z,32.27
2019-03-29T01:05:00.580Z,36.87
2019-03-29T01:07:35.265Z,38.77
2019-03-29T01:10:11.132Z,51.13
2019-03-29T01:12:45.970Z,36.50
2019-03-29T01:15:21.695Z,52.07
2019-03-29T01:17:56.723Z,38.13
2019-03-29T01:20:31.805Z,62.40
2019-03-29T01:23:06.669Z,44.27
2019-03-29T01:25:41.581Z,45.73
2019-03-29T01:28:16.645Z,56.67
2019-03-29T01:30:51.245Z,60.70
2019-03-29T01:33:27.085Z,51.17
2019-03-29T01:36:02.068Z,57.17
2019-03-29T01:38:37.880Z,53.40
2019-03-29T01:41:13.104Z,54.27
2019-03-29T01:43:48.224Z,54.23
2019-03-29T01:46:23.280Z,50.93
2019-03-29T01:48:57.957Z,48.20
2019-03-29T01:51:33.426Z,46.20
2019-03-29T01:54:08.388Z,55.10
2019-03-29T01:56:43.235Z,53.03
2019-03-29T01:59:18.765Z,54.13
2019-03-29T02:01:53.504Z,49.33
2019-03-29T02:04:29.672Z,54.00
2019-03-29T02:07:04.690Z,44.67
2019-03-29T02:09:40.115Z,49.17
2019-03-29T02:12:14.826Z,40.93
2019-03-29T02:14:50.086Z,50.87
2019-03-29T02:17:25.638Z,41.60
2019-03-29T02:20:00.685Z,47.47
2019-03-29T02:22:36.299Z,43.13
2019-03-29T02:25:13.441Z,40.40
2019-03-29T02:27:48.497Z,49.07
2019-03-29T02:30:23.252Z,50.90
2019-03-29T02:32:58.112Z,48.77
2019-03-29T02:35:33.534Z,62.93
2019-03-29T02:38:08.899Z,51.53
2019-03-29T02:40:43.587Z,41.10
2019-03-29T02:43:19.380Z,40.13
2019-03-29T02:45:55.346Z,41.97
2019-03-29T02:48:31.927Z,44.77
2019-03-29T02:51:07.001Z,35.83
2019-03-29T02:53:43.103Z,36.87
2019-03-29T02:56:19.038Z,39.80
2019-03-29T02:58:55.402Z,34.53
2019-03-29T03:01:30.105Z,56.03
2019-03-29T03:04:04.606Z,53.23
2019-03-29T03:06:39.130Z,41.30
2019-03-29T03:09:14.880Z,40.37
2019-03-29T03:11:49.531Z,45.67
2019-03-29T03:14:24.500Z,43.13
2019-03-29T03:16:59.939Z,37.50
2019-03-29T03:19:34.802Z,34.80
2019-03-29T03:22:09.614Z,39.33
2019-03-29T03:24:44.949Z,45.67
2019-03-29T03:27:20.185Z,39.30
2019-03-29T03:29:55.496Z,42.53
2019-03-29T03:32:30.203Z,43.40
2019-03-29T03:35:06.570Z,42.20
2019-03-29T03:37:41.096Z,58.60
2019-03-29T03:40:15.692Z,47.13
2019-03-29T03:42:50.605Z,51.30
2019-03-29T03:45:27.155Z,44.27
2019-03-29T03:48:02.183Z,46.13
2019-03-29T03:50:44.405Z,46.80
2019-03-29T03:53:20.158Z,46.77
2019-03-29T03:55:55.106Z,50.07
2019-03-29T03:58:29.939Z,50.77
2019-03-29T04:01:04.763Z,50.90
2019-03-29T04:03:39.578Z,51.77
2019-03-29T04:06:14.437Z,53.10
2019-03-29T04:08:50.268Z,48.83
2019-03-29T04:11:25.849Z,57.53
2019-03-29T04:14:01.276Z,60.23
2019-03-29T04:16:36.413Z,70.03
2019-03-29T04:19:14.006Z,55.33
2019-03-29T04:21:49.828Z,81.50
2019-03-29T04:24:25.936Z,55.93
2019-03-29T04:27:00.868Z,59.87
2019-03-29T04:29:35.889Z,56.20
2019-03-29T04:32:10.707Z,52.60
2019-03-29T04:34:45.423Z,49.17
2019-03-29T04:37:20.280Z,57.83
2019-03-29T04:40:06.800Z,54.87
2019-03-29T04:42:31.899Z,56.93
2019-03-29T04:45:08.101Z,57.07
2019-03-29T04:47:43.089Z,63.17
2019-03-29T04:50:18.006Z,56.83
2019-03-29T04:52:53.062Z,81.33
2019-03-29T04:55:27.777Z,63.77
2019-03-29T04:58:02.614Z,56.73
2019-03-29T05:00:37.405Z,63.13
2019-03-29T05:03:12.852Z,56.60
2019-03-29T05:05:47.745Z,60.33
2019-03-29T05:08:22.446Z,64.20
2019-03-29T05:10:56.967Z,54.90
2019-03-29T05:13:32.609Z,52.27
2019-03-29T05:16:07.946Z,48.97
2019-03-29T05:18:42.994Z,58.70
2019-03-29T05:21:19.055Z,54.67
2019-03-29T05:23:54.224Z,56.20
2019-03-29T05:26:28.866Z,57.33
2019-03-29T05:29:03.379Z,51.40
2019-03-29T05:31:38.638Z,56.17
2019-03-29T05:34:13.159Z,52.87
2019-03-29T05:36:48.063Z,51.87
2019-03-29T05:39:22.583Z,60.73
2019-03-29T05:41:57.622Z,53.47
2019-03-29T05:44:32.150Z,53.33
2019-03-29T05:47:07.349Z,55.47
2019-03-29T05:49:43.741Z,55.93
2019-03-29T05:52:19.281Z,47.97
2019-03-29T05:54:54.943Z,54.87
2019-03-29T05:57:29.806Z,53.67
2019-03-29T06:00:08.852Z,49.43
2019-03-29T06:02:44.949Z,55.20
2019-03-29T06:05:22.106Z,54.90
2019-03-29T06:07:57.105Z,53.43
2019-03-29T06:10:31.676Z,55.73
2019-03-29T06:13:06.287Z,43.53
2019-03-29T06:15:41.385Z,80.67
2019-03-29T06:18:16.434Z,51.07
2019-03-29T06:20:51.174Z,61.17
2019-03-29T06:23:27.967Z,59.73
2019-03-29T06:26:03.738Z,87.53
2019-03-29T06:28:38.761Z,67.00
2019-03-29T06:31:13.617Z,52.33
2019-03-29T06:33:48.695Z,52.00
2019-03-29T06:36:24.273Z,49.67
2019-03-29T06:39:01.087Z,55.60
2019-03-29T06:41:35.955Z,51.60
2019-03-29T06:44:11.077Z,51.07
2019-03-29T06:46:46.623Z,54.77
2019-03-29T06:49:22.813Z,50.47
2019-03-29T06:51:57.524Z,48.87
2019-03-29T06:54:32.395Z,53.47
2019-03-29T06:57:07.740Z,44.57
2019-03-29T06:59:44.115Z,50.13
2019-03-29T07:02:19.183Z,56.20
2019-03-29T07:04:53.896Z,59.90
2019-03-29T07:07:28.829Z,52.60
2019-03-29T07:10:05.210Z,51.33
2019-03-29T07:12:39.976Z,45.57
2019-03-29T07:15:14.625Z,56.23
2019-03-29T07:17:49.915Z,51.47
2019-03-29T07:20:24.776Z,68.63
2019-03-29T07:22:59.758Z,43.83
2019-03-29T07:25:35.781Z,50.33
2019-03-29T07:28:12.216Z,53.83
2019-03-29T07:30:47.316Z,51.97
2019-03-29T07:33:22.456Z,48.47
2019-03-29T07:35:58.948Z,62.70
2019-03-29T07:38:34.054Z,44.47
2019-03-29T07:41:09.232Z,50.40
2019-03-29T07:43:44.334Z,59.30
2019-03-29T07:46:19.940Z,54.10
2019-03-29T07:48:54.763Z,45.77
2019-03-29T07:51:30.448Z,47.07
2019-03-29T07:54:06.227Z,58.97
2019-03-29T07:56:41.617Z,51.63
2019-03-29T07:59:18.043Z,46.53
2019-03-29T08:01:53.191Z,51.40
2019-03-29T08:04:29.044Z,53.73
2019-03-29T08:07:06.240Z,51.23
2019-03-29T08:09:43.338Z,57.37
2019-03-29T08:12:19.795Z,53.70
2019-03-29T08:14:54.915Z,53.87
2019-03-29T08:17:30.123Z,56.00
2019-03-29T08:20:37.470Z,59.97
2019-03-29T08:22:43.374Z,47.37
2019-03-29T08:25:18.816Z,53.00
2019-03-29T08:27:54.000Z,52.97
2019-03-29T08:30:28.855Z,67.33
2019-03-29T08:33:03.835Z,58.43
2019-03-29T08:35:38.765Z,51.43
2019-03-29T08:38:14.213Z,45.17
2019-03-29T08:40:49.392Z,42.33
2019-03-29T08:43:25.476Z,42.47
2019-03-29T08:46:00.577Z,44.40
2019-03-29T08:48:36.858Z,56.97
2019-03-29T08:51:12.349Z,43.83
2019-03-29T08:53:47.790Z,41.17
2019-03-29T08:56:22.897Z,45.20
2019-03-29T08:58:59.814Z,46.43
2019-03-29T09:01:35.347Z,40.60
2019-03-29T09:04:12.004Z,37.90
2019-03-29T09:06:53.188Z,38.77
2019-03-29T09:09:24.046Z,40.27
2019-03-29T09:12:13.354Z,49.33
2019-03-29T09:14:37.202Z,39.07
2019-03-29T09:17:12.037Z,38.83
2019-03-29T09:19:47.386Z,37.50
2019-03-29T09:22:22.622Z,38.67
2019-03-29T09:24:57.582Z,37.83
2019-03-29T09:27:33.102Z,38.07
2019-03-29T09:30:08.708Z,36.30
2019-03-29T09:32:43.863Z,37.33
2019-03-29T09:35:19.095Z,38.03
2019-03-29T09:37:56.525Z,44.47
2019-03-29T09:40:31.738Z,44.27
2019-03-29T09:43:08.806Z,45.93
2019-03-29T09:45:43.776Z,43.27
2019-03-29T09:48:20.955Z,39.33
2019-03-29T09:50:57.105Z,39.37
2019-03-29T09:53:31.877Z,38.80
2019-03-29T09:56:07.496Z,55.10
2019-03-29T09:58:45.059Z,33.73
2019-03-29T10:01:20.906Z,50.63
2019-03-29T10:03:56.583Z,44.77
2019-03-29T10:06:31.333Z,29.27
2019-03-29T10:09:06.570Z,31.63
2019-03-29T10:11:41.923Z,37.27
2019-03-29T10:14:17.408Z,32.63
2019-03-29T10:16:52.293Z,32.67
2019-03-29T10:19:27.489Z,31.70
2019-03-29T10:22:03.702Z,27.30
2019-03-29T10:24:38.857Z,29.27
2019-03-29T10:27:14.873Z,27.73
2019-03-29T10:29:50.014Z,36.10
2019-03-29T10:32:25.091Z,28.80
2019-03-29T10:35:00.623Z,27.20
2019-03-29T10:37:36.025Z,26.17
2019-03-29T10:40:12.556Z,26.83
2019-03-29T10:42:57.571Z,29.27
2019-03-29T10:45:26.088Z,25.10
2019-03-29T10:48:06.126Z,29.50
2019-03-29T10:50:43.197Z,29.80
2019-03-29T10:53:19.813Z,18.97
2019-03-29T10:55:54.876Z,21.63
2019-03-29T10:58:31.659Z,15.67
2019-03-29T11:01:07.335Z,22.20
2019-03-29T11:03:46.057Z,18.87
2019-03-29T11:06:21.219Z,27.47
2019-03-29T11:08:56.731Z,8.90
2019-03-29T11:11:32.276Z,22.20
2019-03-29T11:14:07.455Z,8.33
2019-03-29T11:16:44.179Z,14.73
2019-03-29T11:19:19.219Z,12.30
2019-03-29T11:21:55.295Z,9.77
2019-03-29T11:24:31.358Z,6.50
2019-03-29T11:27:07.846Z,25.57
2019-03-29T11:29:43.664Z,16.77
2019-03-29T11:32:19.020Z,36.43
2019-03-29T11:34:54.071Z,10.43
2019-03-29T11:37:29.219Z,14.37
2019-03-29T11:40:07.321Z,12.40
2019-03-29T11:42:42.870Z,9.00
2019-03-29T11:45:17.818Z,13.37
2019-03-29T11:48:07.518Z,7.43
2019-03-29T11:50:32.197Z,8.87
2019-03-29T11:53:07.365Z,7.60
2019-03-29T11:55:43.746Z,18.17
2019-03-29T11:58:19.021Z,14.80
2019-03-29T12:00:54.189Z,8.57
2019-03-29T12:03:30.055Z,18.23
2019-03-29T12:06:05.208Z,21.27
2019-03-29T12:08:41.694Z,13.47
2019-03-29T12:11:16.773Z,11.57
2019-03-29T12:13:51.942Z,16.47
2019-03-29T12:16:27.491Z,19.10
2019-03-29T12:19:03.283Z,13.87
2019-03-29T12:21:40.133Z,16.67
2019-03-29T12:24:15.594Z,16.00
2019-03-29T12:26:51.142Z,11.27
2019-03-29T12:29:26.299Z,15.50
2019-03-29T12:32:04.004Z,12.77
2019-03-29T12:34:39.734Z,14.57
2019-03-29T12:37:14.815Z,12.07
2019-03-29T12:39:49.981Z,12.43
2019-03-29T12:42:27.297Z,15.80
2019-03-29T12:45:02.448Z,14.13
2019-03-29T12:47:37.661Z,14.77
2019-03-29T12:50:14.324Z,12.53
2019-03-29T12:52:49.427Z,16.83
2019-03-29T12:55:29.304Z,15.90
2019-03-29T12:58:04.523Z,15.07
2019-03-29T13:00:39.939Z,13.47
2019-03-29T13:03:15.289Z,24.80
2019-03-29T13:05:50.461Z,11.27
2019-03-29T13:08:25.556Z,27.83
2019-03-29T13:11:01.753Z,16.83
2019-03-29T13:13:36.879Z,17.60
2019-03-29T13:16:11.992Z,16.07
2019-03-29T13:18:47.228Z,13.37
2019-03-29T13:21:22.380Z,6.97
2019-03-29T13:23:58.221Z,15.37
2019-03-29T13:26:35.713Z,9.93
2019-03-29T13:29:11.846Z,15.97
2019-03-29T13:31:47.465Z,12.73
2019-03-29T13:34:22.576Z,13.33
2019-03-29T13:37:01.155Z,23.67
2019-03-29T13:39:36.923Z,20.73
2019-03-29T13:42:12.059Z,15.37
2019-03-29T13:44:47.590Z,14.63
2019-03-29T13:47:24.572Z,15.77
2019-03-29T13:50:01.018Z,11.87
2019-03-29T13:52:36.062Z,14.63
2019-03-29T13:55:13.716Z,16.60
2019-03-29T13:57:50.232Z,19.13
2019-03-29T14:00:28.092Z,13.17
2019-03-29T14:03:06.271Z,17.40
2019-03-29T14:05:41.209Z,22.57
2019-03-29T14:08:16.435Z,11.20
2019-03-29T14:10:51.604Z,15.70
2019-03-29T14:13:26.820Z,13.40
2019-03-29T14:16:02.065Z,22.00
2019-03-29T14:18:38.454Z,19.87
2019-03-29T14:21:13.615Z,17.67
2019-03-29T14:23:48.854Z,17.47
2019-03-29T14:26:24.006Z,17.77
2019-03-29T14:29:00.201Z,22.90
2019-03-29T14:31:35.810Z,16.60
2019-03-29T14:34:10.875Z,37.30
2019-03-29T14:36:46.013Z,18.00
2019-03-29T14:39:21.155Z,51.37
2019-03-29T14:41:56.595Z,18.73
2019-03-29T14:44:32.091Z,27.93
2019-03-29T14:47:08.186Z,15.00
2019-03-29T14:49:43.662Z,18.57
2019-03-29T14:52:19.123Z,20.57
2019-03-29T14:54:54.847Z,14.17
2019-03-29T14:57:31.297Z,23.30
2019-03-29T15:00:14.219Z,14.33
2019-03-29T15:02:51.410Z,24.63
2019-03-29T15:05:27.879Z,19.70
2019-03-29T15:08:03.419Z,20.30
2019-03-29T15:10:39.135Z,14.90
2019-03-29T15:13:15.130Z,18.73
2019-03-29T15:15:53.297Z,22.13
2019-03-29T15:18:28.423Z,20.57
2019-03-29T15:21:04.649Z,17.10
2019-03-29T15:23:44.560Z,21.10
2019-03-29T15:26:20.160Z,22.50
2019-03-29T15:28:55.238Z,17.10
2019-03-29T15:31:30.407Z,17.47
2019-03-29T15:34:05.667Z,26.93
2019-03-29T15:36:42.223Z,21.17
2019-03-29T15:39:17.431Z,22.70
2019-03-29T15:41:52.589Z,18.80
2019-03-29T15:44:28.268Z,25.27
2019-03-29T15:47:03.416Z,17.60
2019-03-29T15:49:38.577Z,25.33
2019-03-29T15:52:13.664Z,31.90
2019-03-29T15:54:48.966Z,16.47
2019-03-29T15:57:24.107Z,15.30
2019-03-29T15:59:59.037Z,22.73
2019-03-29T16:02:34.245Z,13.90
2019-03-29T16:05:11.935Z,26.77
2019-03-29T16:07:47.458Z,32.53
2019-03-29T16:10:23.970Z,22.33
2019-03-29T16:13:01.698Z,60.37
2019-03-29T16:15:38.496Z,20.57
2019-03-29T16:18:13.782Z,23.10
2019-03-29T16:20:49.209Z,19.30
2019-03-29T16:23:24.338Z,18.40
2019-03-29T16:25:59.802Z,22.13
2019-03-29T16:28:34.969Z,18.60
2019-03-29T16:31:10.999Z,19.70
2019-03-29T16:33:46.761Z,17.20
2019-03-29T16:36:21.722Z,18.60
2019-03-29T16:38:57.076Z,18.83
2019-03-29T16:41:32.575Z,20.07
2019-03-29T16:44:08.871Z,21.17
2019-03-29T16:46:44.011Z,23.47
2019-03-29T16:49:20.170Z,19.67
2019-03-29T16:51:55.240Z,18.43
2019-03-29T16:54:30.177Z,20.33
2019-03-29T16:57:05.463Z,21.40
2019-03-29T16:59:41.199Z,17.50
2019-03-29T17:02:15.840Z,22.33
2019-03-29T17:04:50.720Z,27.23
2019-03-29T17:07:26.009Z,25.30
2019-03-29T17:10:01.400Z,21.40
2019-03-29T17:12:37.530Z,21.53
2019-03-29T17:15:13.001Z,19.17
2019-03-29T17:17:47.843Z,14.67
2019-03-29T17:20:22.454Z,19.07
2019-03-29T17:22:57.100Z,21.20
2019-03-29T17:25:33.109Z,24.37
2019-03-29T17:28:09.014Z,21.73
2019-03-29T17:30:45.848Z,17.00
2019-03-29T17:33:22.524Z,19.47
2019-03-29T17:35:57.477Z,28.90
2019-03-29T17:38:32.170Z,19.10
2019-03-29T17:41:07.490Z,24.87
2019-03-29T17:43:44.547Z,15.47
2019-03-29T17:46:19.286Z,34.40
2019-03-29T17:48:54.558Z,18.10
2019-03-29T17:51:30.332Z,38.30
2019-03-29T17:54:05.448Z,24.30
2019-03-29T17:56:40.419Z,26.37
2019-03-29T17:59:15.513Z,25.23
2019-03-29T18:01:50.546Z,24.23
2019-03-29T18:04:26.393Z,28.57
2019-03-29T18:07:00.947Z,22.97
2019-03-29T18:09:43.535Z,32.57
2019-03-29T18:12:18.475Z,32.27
2019-03-29T18:14:53.704Z,21.03
2019-03-29T18:17:28.652Z,27.30
2019-03-29T18:20:05.745Z,28.10
2019-03-29T18:22:41.842Z,15.33
2019-03-29T18:25:16.791Z,40.30
2019-03-29T18:27:51.880Z,30.23
2019-03-29T18:30:29.224Z,29.47
2019-03-29T18:33:04.778Z,72.70
2019-03-29T18:35:39.812Z,37.53
2019-03-29T18:38:14.938Z,25.60
2019-03-29T18:40:51.129Z,31.70
2019-03-29T18:43:26.843Z,22.00
2019-03-29T18:46:02.436Z,34.23
2019-03-29T18:48:38.185Z,26.30
2019-03-29T18:51:13.115Z,43.23
2019-03-29T18:53:47.653Z,23.83
2019-03-29T18:56:22.336Z,20.33
2019-03-29T18:58:57.339Z,30.87
2019-03-29T19:01:33.193Z,23.53
2019-03-29T19:04:07.754Z,28.47
2019-03-29T19:06:42.390Z,25.00
2019-03-29T19:09:17.358Z,33.23
2019-03-29T19:11:53.386Z,30.40
2019-03-29T19:14:28.540Z,47.97
2019-03-29T19:17:03.210Z,30.97
2019-03-29T19:19:38.090Z,32.83
2019-03-29T19:22:12.887Z,31.63
2019-03-29T19:24:48.459Z,35.00
2019-03-29T19:27:23.046Z,45.23
2019-03-29T19:29:58.539Z,44.07
2019-03-29T19:32:33.575Z,45.90
2019-03-29T19:35:08.969Z,32.13
2019-03-29T19:37:44.005Z,61.80
2019-03-29T19:40:24.312Z,40.47
2019-03-29T19:42:59.738Z,31.30
2019-03-29T19:45:42.428Z,33.37
2019-03-29T19:48:30.483Z,44.97
2019-03-29T19:51:05.540Z,36.67
2019-03-29T19:53:40.957Z,40.30
2019-03-29T19:56:16.348Z,37.30
2019-03-29T19:58:52.246Z,33.57
2019-03-29T20:01:27.976Z,38.57
2019-03-29T20:04:03.664Z,32.20
2019-03-29T20:06:39.981Z,30.77
2019-03-29T20:09:14.660Z,34.43
2019-03-29T20:11:50.436Z,30.40
2019-03-29T20:14:25.089Z,31.53
2019-03-29T20:17:00.065Z,34.93
2019-03-29T20:19:35.653Z,35.90
2019-03-29T20:22:10.322Z,40.50
2019-03-29T20:24:46.317Z,30.63
2019-03-29T20:27:21.511Z,28.77
2019-03-29T20:29:56.406Z,36.10
2019-03-29T20:32:31.074Z,42.40
2019-03-29T20:35:07.394Z,29.37
2019-03-29T20:37:44.291Z,38.10
2019-03-29T20:40:20.174Z,43.73
2019-03-29T20:42:56.161Z,42.27
2019-03-29T20:45:31.762Z,28.10
2019-03-29T20:48:06.291Z,38.57
2019-03-29T20:50:41.182Z,38.07
2019-03-29T20:53:17.245Z,34.37
2019-03-29T20:55:53.202Z,44.03
2019-03-29T20:58:30.043Z,53.53
2019-03-29T21:01:06.707Z,40.17
2019-03-29T21:03:42.179Z,33.77
2019-03-29T21:06:18.682Z,33.37
2019-03-29T21:08:53.360Z,36.23
2019-03-29T21:11:28.827Z,37.93
2019-03-29T21:14:06.522Z,29.53
2019-03-29T21:16:45.962Z,33.10
2019-03-29T21:19:21.060Z,24.93
2019-03-29T21:21:56.764Z,35.63
2019-03-29T21:24:31.855Z,38.73
2019-03-29T21:27:07.279Z,30.97
2019-03-29T21:29:44.163Z,30.80
2019-03-29T21:32:19.750Z,26.40
2019-03-29T21:34:54.845Z,37.30
2019-03-29T21:37:29.635Z,38.50
2019-03-29T21:40:06.042Z,30.47
2019-03-29T21:42:41.435Z,91.00
2019-03-29T21:45:27.985Z,132.67
2019-03-29T21:48:04.667Z,26.67
2019-03-29T21:50:31.608Z,27.00
2019-03-29T21:53:06.613Z,37.30
2019-03-29T21:55:41.254Z,32.33
2019-03-29T21:58:15.844Z,28.63
2019-03-29T22:00:50.443Z,37.17
2019-03-29T22:03:24.990Z,31.23
2019-03-29T22:06:00.335Z,30.77
2019-03-29T22:08:35.665Z,31.97
2019-03-29T22:11:12.275Z,26.87
2019-03-29T22:13:47.396Z,49.40
2019-03-29T22:16:22.585Z,45.93
2019-03-29T22:18:57.861Z,37.80
2019-03-29T22:21:35.192Z,47.80
2019-03-29T22:24:10.488Z,34.17
2019-03-29T22:26:45.415Z,29.37
2019-03-29T22:29:21.494Z,35.07
2019-03-29T22:31:56.645Z,29.83
2019-03-29T22:34:32.536Z,34.90
2019-03-29T22:37:07.726Z,21.13
2019-03-29T22:39:43.139Z,53.00
2019-03-29T22:42:17.886Z,23.47
2019-03-29T22:44:53.409Z,26.03
2019-03-29T22:47:28.871Z,25.13
2019-03-29T22:50:06.351Z,22.40
2019-03-29T22:52:40.947Z,28.97
2019-03-29T22:55:16.468Z,26.43
2019-03-29T22:57:53.638Z,26.80
2019-03-29T23:00:34.698Z,26.87
2019-03-29T23:03:11.367Z,28.50
2019-03-29T23:05:46.262Z,33.33
2019-03-29T23:08:20.942Z,29.13
2019-03-29T23:10:57.735Z,29.33
2019-03-29T23:13:33.852Z,25.33
2019-03-29T23:16:11.946Z,25.60
2019-03-29T23:18:46.573Z,34.27
2019-03-29T23:21:21.104Z,32.37
2019-03-29T23:23:56.247Z,24.63
2019-03-29T23:26:31.591Z,35.70
2019-03-29T23:29:08.162Z,33.57
2019-03-29T23:31:43.249Z,32.83
2019-03-29T23:34:18.646Z,35.60
2019-03-29T23:36:55.032Z,27.10
2019-03-29T23:39:30.559Z,35.47
2019-03-29T23:42:07.350Z,32.80
2019-03-29T23:44:42.070Z,31.03
2019-03-29T23:47:16.668Z,28.87
2019-03-29T23:49:51.378Z,36.30
2019-03-29T23:52:26.260Z,25.90
2019-03-29T23:55:00.776Z,47.13
2019-03-29T23:57:35.300Z,31.77
